createdAt,value
2023-01-31T00:04:15.469Z,2.70
2023-01-31T00:09:17.628Z,1.27
2023-01-31T00:14:20.794Z,2.20
2023-01-31T00:19:22.941Z,1.77
2023-01-31T00:24:25.156Z,1.60
2023-01-31T00:29:27.258Z,1.42
2023-01-31T00:34:29.841Z,0.90
2023-01-31T00:39:32.288Z,1.67
2023-01-31T00:44:34.623Z,1.30
2023-01-31T00:49:36.982Z,2.30
2023-01-31T00:54:39.825Z,3.33
2023-01-31T00:59:42.084Z,1.33
2023-01-31T01:04:44.250Z,0.90
2023-01-31T01:09:47.590Z,1.88
2023-01-31T01:14:49.935Z,1.00
2023-01-31T01:19:52.142Z,1.77
2023-01-31T01:24:54.259Z,2.50
2023-01-31T01:29:56.399Z,1.98
2023-01-31T01:34:59.150Z,1.35
2023-01-31T01:40:01.276Z,1.38
2023-01-31T01:45:15.841Z,0.75
2023-01-31T01:50:32.840Z,1.67
2023-01-31T01:55:42.002Z,1.55
2023-01-31T02:00:45.633Z,1.15
2023-01-31T02:05:52.043Z,3.33
2023-01-31T02:10:59.848Z,1.27
2023-01-31T02:16:02.025Z,2.20
2023-01-31T02:21:23.922Z,2.45
2023-01-31T02:26:47.968Z,1.88
2023-01-31T02:32:10.713Z,2.92
2023-01-31T02:37:19.941Z,4.07
2023-01-31T02:42:41.207Z,2.40
2023-01-31T02:48:04.930Z,2.83
2023-01-31T02:53:20.318Z,2.67
2023-01-31T02:58:28.009Z,2.38
2023-01-31T03:03:35.069Z,2.80
2023-01-31T03:08:40.147Z,5.28
2023-01-31T03:13:45.817Z,2.63
2023-01-31T03:18:55.521Z,2.50
2023-01-31T03:23:59.483Z,3.97
2023-01-31T03:29:04.095Z,3.10
2023-01-31T03:34:09.618Z,2.70
2023-01-31T03:39:30.835Z,2.15
2023-01-31T03:44:52.082Z,4.78
2023-01-31T03:49:58.642Z,3.00
2023-01-31T03:55:08.384Z,3.00
2023-01-31T04:00:15.782Z,2.53
2023-01-31T04:05:30.600Z,2.13
2023-01-31T04:10:33.413Z,1.17
2023-01-31T04:15:35.631Z,2.85
2023-01-31T04:20:37.778Z,1.92
2023-01-31T04:25:39.938Z,1.85
2023-01-31T04:30:42.083Z,1.38
2023-01-31T04:35:44.235Z,2.17
2023-01-31T04:40:46.413Z,2.15
2023-01-31T04:45:50.222Z,1.15
2023-01-31T04:50:52.505Z,1.55
2023-01-31T04:55:55.251Z,1.70
2023-01-31T05:00:57.559Z,2.50
2023-01-31T05:05:59.834Z,1.88
2023-01-31T05:11:04.448Z,2.17
2023-01-31T05:16:08.679Z,2.40
2023-01-31T05:21:11.506Z,0.93
2023-01-31T05:26:13.621Z,1.20
2023-01-31T05:31:15.859Z,2.22
2023-01-31T05:36:18.059Z,1.65
2023-01-31T05:41:20.167Z,2.22
2023-01-31T05:46:22.557Z,1.23
2023-01-31T05:51:24.845Z,1.00
2023-01-31T05:56:27.080Z,2.45
2023-01-31T06:01:29.974Z,1.88
2023-01-31T06:06:32.178Z,1.52
2023-01-31T06:11:34.430Z,1.20
2023-01-31T06:16:36.815Z,3.63
2023-01-31T06:21:39.379Z,3.45
2023-01-31T06:26:41.556Z,1.60
2023-01-31T06:31:45.352Z,2.00
2023-01-31T06:36:47.651Z,1.38
2023-01-31T06:41:49.832Z,2.00
2023-01-31T06:46:52.009Z,2.85
2023-01-31T06:51:54.405Z,2.75
2023-01-31T06:56:56.592Z,1.35
2023-01-31T07:01:58.744Z,3.45
2023-01-31T07:07:00.879Z,2.05
2023-01-31T07:12:03.242Z,2.33
2023-01-31T07:17:05.392Z,2.42
2023-01-31T07:22:07.582Z,1.98
2023-01-31T07:27:12.122Z,2.72
2023-01-31T07:32:14.355Z,1.70
2023-01-31T07:37:16.838Z,6.30
2023-01-31T07:42:19.063Z,6.35
2023-01-31T07:47:21.327Z,8.20
2023-01-31T07:52:23.556Z,5.78
2023-01-31T07:57:25.704Z,13.70
2023-01-31T08:02:46.706Z,9.40
2023-01-31T08:08:08.872Z,11.80
2023-01-31T08:13:11.901Z,9.77
2023-01-31T08:18:14.126Z,9.18
2023-01-31T08:23:16.306Z,7.85
2023-01-31T08:28:18.461Z,7.25
2023-01-31T08:33:20.552Z,4.78
2023-01-31T08:38:22.907Z,3.45
2023-01-31T08:43:25.325Z,3.72
2023-01-31T08:48:27.430Z,2.53
2023-01-31T08:53:29.688Z,2.70
2023-01-31T08:58:33.998Z,2.83
2023-01-31T09:03:36.340Z,4.50
2023-01-31T09:08:38.438Z,2.95
2023-01-31T09:13:40.537Z,3.55
2023-01-31T09:18:43.324Z,1.90
2023-01-31T09:23:45.809Z,2.40
2023-01-31T09:28:49.230Z,3.75
2023-01-31T09:33:51.364Z,3.30
2023-01-31T09:38:57.275Z,2.83
2023-01-31T09:44:14.965Z,3.88
2023-01-31T09:49:23.542Z,2.95
2023-01-31T09:54:32.018Z,1.97
2023-01-31T09:59:48.978Z,1.80
2023-01-31T10:05:18.796Z,2.13
2023-01-31T10:10:31.268Z,2.25
2023-01-31T10:15:43.686Z,2.35
2023-01-31T10:20:53.425Z,4.57
2023-01-31T10:26:06.699Z,3.20
2023-01-31T10:31:36.275Z,2.30
2023-01-31T10:36:58.280Z,2.45
2023-01-31T10:42:28.181Z,2.72
2023-01-31T10:47:39.392Z,2.33
2023-01-31T10:53:25.777Z,2.08
2023-01-31T10:58:27.968Z,2.88
2023-01-31T11:03:30.157Z,2.45
2023-01-31T11:08:35.496Z,3.08
2023-01-31T11:13:39.084Z,2.30
2023-01-31T11:18:48.468Z,2.20
2023-01-31T11:28:54.187Z,1.92
2023-01-31T11:33:59.092Z,2.38
2023-01-31T11:39:35.256Z,2.70
2023-01-31T11:44:37.452Z,2.33
2023-01-31T11:49:44.216Z,2.45
2023-01-31T11:55:02.133Z,2.40
2023-01-31T12:00:18.586Z,2.25
2023-01-31T12:05:41.508Z,2.40
2023-01-31T12:10:47.166Z,2.53
2023-01-31T12:15:59.940Z,2.80
2023-01-31T12:21:25.268Z,1.70
2023-01-31T12:26:27.487Z,2.53
2023-01-31T12:31:38.440Z,2.72
2023-01-31T12:37:17.009Z,2.70
2023-01-31T12:42:19.171Z,3.10
2023-01-31T12:47:39.488Z,3.33
2023-01-31T12:52:50.576Z,3.35
2023-01-31T12:58:04.873Z,2.33
2023-01-31T13:03:25.115Z,2.55
2023-01-31T13:08:30.283Z,2.13
2023-01-31T13:13:43.855Z,2.22
2023-01-31T13:18:49.078Z,0.95
2023-01-31T13:23:59.777Z,0.65
2023-01-31T13:29:17.536Z,0.43
2023-01-31T13:34:34.954Z,1.38
2023-01-31T13:39:44.213Z,1.92
2023-01-31T13:44:47.795Z,1.23
2023-01-31T13:49:52.378Z,0.60
2023-01-31T13:55:24.297Z,0.20
2023-01-31T14:00:44.544Z,0.52
2023-01-31T14:05:51.245Z,0.43
2023-01-31T14:10:54.929Z,0.55
2023-01-31T14:15:57.961Z,0.75
2023-01-31T14:21:29.467Z,1.10
2023-01-31T14:26:43.773Z,0.70
2023-01-31T14:31:48.183Z,0.65
2023-01-31T14:37:11.385Z,0.50
2023-01-31T14:42:49.763Z,0.90
2023-01-31T14:48:38.384Z,1.93
2023-01-31T14:54:12.458Z,0.85
2023-01-31T14:59:26.064Z,1.80
2023-01-31T15:04:29.157Z,0.65
2023-01-31T15:09:39.369Z,2.17
2023-01-31T15:14:49.273Z,1.17
2023-01-31T15:20:03.271Z,3.72
2023-01-31T15:25:21.356Z,2.67
2023-01-31T15:30:24.714Z,1.58
2023-01-31T15:35:52.397Z,2.30
2023-01-31T15:41:18.877Z,1.42
2023-01-31T15:46:33.424Z,2.08
2023-01-31T15:51:35.622Z,1.23
2023-01-31T15:56:40.609Z,0.80
2023-01-31T16:01:51.185Z,2.20
2023-01-31T16:06:53.606Z,0.45
2023-01-31T16:12:00.787Z,0.85
2023-01-31T16:17:03.103Z,1.10
2023-01-31T16:22:31.619Z,0.93
2023-01-31T16:27:38.301Z,0.80
2023-01-31T16:32:42.118Z,1.20
2023-01-31T16:37:44.866Z,0.98
2023-01-31T16:42:47.761Z,0.68
2023-01-31T16:47:52.697Z,0.60
2023-01-31T16:53:33.173Z,0.88
2023-01-31T16:58:57.681Z,1.35
2023-01-31T17:04:20.339Z,2.05
2023-01-31T17:09:23.183Z,1.63
2023-01-31T17:14:26.374Z,0.70
2023-01-31T17:19:31.258Z,1.35
2023-01-31T17:24:33.444Z,1.27
2023-01-31T17:29:35.565Z,1.30
2023-01-31T17:34:37.675Z,1.73
2023-01-31T17:39:41.132Z,1.40
2023-01-31T17:44:43.263Z,1.48
2023-01-31T17:49:45.446Z,1.88
2023-01-31T17:54:47.687Z,2.58
2023-01-31T17:59:50.016Z,1.67
2023-01-31T18:04:52.267Z,4.93
2023-01-31T18:09:54.687Z,2.40
2023-01-31T18:14:57.040Z,2.92
2023-01-31T18:19:59.352Z,3.85
2023-01-31T18:25:01.471Z,4.85
2023-01-31T18:30:05.668Z,6.10
2023-01-31T18:35:08.223Z,7.53
2023-01-31T18:40:11.183Z,6.53
2023-01-31T18:45:13.503Z,4.90
2023-01-31T18:50:15.865Z,4.60
2023-01-31T18:55:18.230Z,8.85
2023-01-31T19:00:21.103Z,4.63
2023-01-31T19:05:23.915Z,6.32
2023-01-31T19:10:26.436Z,4.68
2023-01-31T19:15:28.717Z,6.22
2023-01-31T19:20:30.911Z,4.85
2023-01-31T19:25:33.053Z,4.25
2023-01-31T19:30:35.392Z,3.83
2023-01-31T19:35:37.595Z,3.58
2023-01-31T19:40:41.486Z,3.63
2023-01-31T19:45:43.745Z,2.40
2023-01-31T19:50:45.986Z,3.80
2023-01-31T19:55:53.981Z,2.72
2023-01-31T20:00:56.259Z,3.90
2023-01-31T20:06:04.479Z,2.60
2023-01-31T20:11:08.779Z,3.97
2023-01-31T20:16:13.340Z,6.15
2023-01-31T20:21:20.798Z,4.32
2023-01-31T20:26:24.487Z,2.95
2023-01-31T20:31:27.160Z,2.88
2023-01-31T20:36:29.351Z,3.10
2023-01-31T20:41:31.569Z,4.03
2023-01-31T20:46:33.733Z,3.15
2023-01-31T20:51:35.862Z,4.93
2023-01-31T20:56:39.038Z,2.97
2023-01-31T21:01:43.196Z,2.33
2023-01-31T21:06:45.538Z,2.58
2023-01-31T21:11:47.887Z,4.90
2023-01-31T21:16:50.034Z,3.00
2023-01-31T21:21:52.842Z,3.67
2023-01-31T21:26:55.037Z,2.42
2023-01-31T21:31:57.223Z,1.95
2023-01-31T21:36:59.474Z,2.17
2023-01-31T21:42:16.722Z,2.95
2023-01-31T21:47:18.839Z,4.18
2023-01-31T21:52:20.913Z,3.35
2023-01-31T21:57:22.963Z,3.72
2023-01-31T22:02:25.189Z,2.83
2023-01-31T22:07:27.451Z,3.22
2023-01-31T22:12:30.865Z,3.00
2023-01-31T22:17:32.970Z,2.40
2023-01-31T22:22:35.097Z,3.58
2023-01-31T22:27:37.255Z,2.40
2023-01-31T22:32:39.416Z,2.13
2023-01-31T22:37:42.386Z,2.47
2023-01-31T22:42:44.698Z,3.58
2023-01-31T22:47:46.859Z,2.10
2023-01-31T22:52:49.067Z,2.78
2023-01-31T22:57:51.214Z,2.60
2023-01-31T23:02:53.326Z,2.90
2023-01-31T23:07:56.912Z,3.15
2023-01-31T23:12:59.307Z,2.50
2023-01-31T23:18:02.106Z,3.13
2023-01-31T23:23:04.333Z,2.85
2023-01-31T23:28:06.941Z,2.28
2023-01-31T23:33:09.045Z,2.17
2023-01-31T23:38:11.293Z,2.63
2023-01-31T23:43:13.424Z,1.60
2023-01-31T23:48:16.320Z,3.80
2023-01-31T23:53:18.591Z,1.52
2023-01-31T23:58:20.781Z,2.08
